sensor_id;sensor_type;location;lat;lon;timestamp;P1;durP1;ratioP1;P2;durP2;ratioP2
11439;SDS011;5776;51.814;4.510;2023-05-17T00:01:52;12.73;;;3.03;;
11439;SDS011;5776;51.814;4.510;2023-05-17T00:04:19;9.47;;;3.23;;
11439;SDS011;5776;51.814;4.510;2023-05-17T00:06:45;17.70;;;3.50;;
11439;SDS011;5776;51.814;4.510;2023-05-17T00:09:11;10.83;;;3.10;;
11439;SDS011;5776;51.814;4.510;2023-05-17T00:11:37;14.47;;;3.57;;
11439;SDS011;5776;51.814;4.510;2023-05-17T00:14:03;10.10;;;2.90;;
11439;SDS011;5776;51.814;4.510;2023-05-17T00:16:29;13.23;;;3.10;;
11439;SDS011;5776;51.814;4.510;2023-05-17T00:18:55;12.30;;;3.37;;
11439;SDS011;5776;51.814;4.510;2023-05-17T00:21:21;11.20;;;3.30;;
11439;SDS011;5776;51.814;4.510;2023-05-17T00:23:47;9.33;;;2.70;;
11439;SDS011;5776;51.814;4.510;2023-05-17T00:26:13;9.47;;;3.10;;
11439;SDS011;5776;51.814;4.510;2023-05-17T00:28:39;8.37;;;2.97;;
11439;SDS011;5776;51.814;4.510;2023-05-17T00:31:04;10.67;;;3.40;;
11439;SDS011;5776;51.814;4.510;2023-05-17T00:33:30;17.37;;;3.73;;
11439;SDS011;5776;51.814;4.510;2023-05-17T00:35:56;11.80;;;2.90;;
11439;SDS011;5776;51.814;4.510;2023-05-17T00:38:22;13.27;;;3.63;;
11439;SDS011;5776;51.814;4.510;2023-05-17T00:40:48;11.77;;;3.10;;
11439;SDS011;5776;51.814;4.510;2023-05-17T00:43:14;8.70;;;2.77;;
11439;SDS011;5776;51.814;4.510;2023-05-17T00:45:40;12.77;;;3.90;;
11439;SDS011;5776;51.814;4.510;2023-05-17T00:48:06;11.40;;;3.30;;
11439;SDS011;5776;51.814;4.510;2023-05-17T00:50:32;10.97;;;3.70;;
11439;SDS011;5776;51.814;4.510;2023-05-17T00:52:58;11.20;;;3.30;;
11439;SDS011;5776;51.814;4.510;2023-05-17T00:55:25;13.53;;;3.53;;
11439;SDS011;5776;51.814;4.510;2023-05-17T00:57:51;10.70;;;2.63;;
11439;SDS011;5776;51.814;4.510;2023-05-17T01:00:18;13.30;;;3.20;;
11439;SDS011;5776;51.814;4.510;2023-05-17T01:02:44;14.23;;;3.37;;
11439;SDS011;5776;51.814;4.510;2023-05-17T01:05:13;8.87;;;3.27;;
11439;SDS011;5776;51.814;4.510;2023-05-17T01:07:39;14.77;;;3.80;;
11439;SDS011;5776;51.814;4.510;2023-05-17T01:10:05;12.43;;;3.87;;
11439;SDS011;5776;51.814;4.510;2023-05-17T01:18:31;12.97;;;3.87;;
11439;SDS011;5776;51.814;4.510;2023-05-17T01:24:01;12.40;;;3.87;;
11439;SDS011;5776;51.814;4.510;2023-05-17T01:26:42;13.20;;;3.57;;
11439;SDS011;5776;51.814;4.510;2023-05-17T01:29:09;12.70;;;4.00;;
11439;SDS011;5776;51.814;4.510;2023-05-17T01:31:38;15.93;;;3.90;;
11439;SDS011;5776;51.814;4.510;2023-05-17T01:34:06;14.33;;;4.03;;
11439;SDS011;5776;51.814;4.510;2023-05-17T01:36:33;10.80;;;3.57;;
11439;SDS011;5776;51.814;4.510;2023-05-17T01:39:00;11.73;;;4.43;;
11439;SDS011;5776;51.814;4.510;2023-05-17T01:41:32;15.53;;;4.07;;
11439;SDS011;5776;51.814;4.510;2023-05-17T01:44:11;13.83;;;4.27;;
11439;SDS011;5776;51.814;4.510;2023-05-17T01:46:41;12.47;;;3.93;;
11439;SDS011;5776;51.814;4.510;2023-05-17T01:51:47;11.30;;;3.43;;
11439;SDS011;5776;51.814;4.510;2023-05-17T01:54:20;14.67;;;4.33;;
11439;SDS011;5776;51.814;4.510;2023-05-17T01:56:53;13.77;;;4.63;;
11439;SDS011;5776;51.814;4.510;2023-05-17T01:59:22;15.07;;;3.90;;
11439;SDS011;5776;51.814;4.510;2023-05-17T02:01:54;18.33;;;4.77;;
11439;SDS011;5776;51.814;4.510;2023-05-17T02:04:28;17.07;;;4.13;;
11439;SDS011;5776;51.814;4.510;2023-05-17T02:06:55;14.87;;;3.40;;
11439;SDS011;5776;51.814;4.510;2023-05-17T02:09:21;16.47;;;3.73;;
11439;SDS011;5776;51.814;4.510;2023-05-17T02:11:47;13.13;;;3.97;;
11439;SDS011;5776;51.814;4.510;2023-05-17T02:14:13;12.67;;;4.20;;
11439;SDS011;5776;51.814;4.510;2023-05-17T02:16:39;11.63;;;3.40;;
11439;SDS011;5776;51.814;4.510;2023-05-17T02:19:04;15.10;;;3.33;;
11439;SDS011;5776;51.814;4.510;2023-05-17T02:21:36;12.83;;;3.70;;
11439;SDS011;5776;51.814;4.510;2023-05-17T02:24:02;14.60;;;4.27;;
11439;SDS011;5776;51.814;4.510;2023-05-17T02:26:28;12.50;;;4.17;;
11439;SDS011;5776;51.814;4.510;2023-05-17T02:28:54;12.20;;;3.93;;
11439;SDS011;5776;51.814;4.510;2023-05-17T02:31:20;9.10;;;3.70;;
11439;SDS011;5776;51.814;4.510;2023-05-17T02:33:46;12.27;;;3.57;;
11439;SDS011;5776;51.814;4.510;2023-05-17T02:36:12;12.70;;;3.93;;
11439;SDS011;5776;51.814;4.510;2023-05-17T02:38:38;13.70;;;3.87;;
11439;SDS011;5776;51.814;4.510;2023-05-17T02:41:04;12.80;;;4.23;;
11439;SDS011;5776;51.814;4.510;2023-05-17T02:43:30;18.33;;;3.93;;
11439;SDS011;5776;51.814;4.510;2023-05-17T02:45:56;10.43;;;3.40;;
11439;SDS011;5776;51.814;4.510;2023-05-17T02:48:22;13.77;;;3.17;;
11439;SDS011;5776;51.814;4.510;2023-05-17T02:50:48;12.73;;;3.20;;
11439;SDS011;5776;51.814;4.510;2023-05-17T02:53:13;10.37;;;3.50;;
11439;SDS011;5776;51.814;4.510;2023-05-17T02:55:39;18.20;;;3.67;;
11439;SDS011;5776;51.814;4.510;2023-05-17T02:58:05;14.90;;;3.60;;
11439;SDS011;5776;51.814;4.510;2023-05-17T03:00:31;14.57;;;3.77;;
11439;SDS011;5776;51.814;4.510;2023-05-17T03:02:57;17.60;;;4.50;;
11439;SDS011;5776;51.814;4.510;2023-05-17T03:05:23;13.47;;;3.40;;
11439;SDS011;5776;51.814;4.510;2023-05-17T03:07:49;10.37;;;2.80;;
11439;SDS011;5776;51.814;4.510;2023-05-17T03:10:15;11.73;;;3.43;;
11439;SDS011;5776;51.814;4.510;2023-05-17T03:12:41;12.23;;;3.60;;
11439;SDS011;5776;51.814;4.510;2023-05-17T03:15:07;15.80;;;3.67;;
11439;SDS011;5776;51.814;4.510;2023-05-17T03:17:33;13.40;;;4.53;;
11439;SDS011;5776;51.814;4.510;2023-05-17T03:19:59;11.93;;;3.53;;
11439;SDS011;5776;51.814;4.510;2023-05-17T03:22:25;11.13;;;3.60;;
11439;SDS011;5776;51.814;4.510;2023-05-17T03:24:50;11.20;;;3.37;;
11439;SDS011;5776;51.814;4.510;2023-05-17T03:27:16;11.20;;;3.90;;
11439;SDS011;5776;51.814;4.510;2023-05-17T03:29:42;13.33;;;4.00;;
11439;SDS011;5776;51.814;4.510;2023-05-17T03:32:08;13.07;;;3.40;;
11439;SDS011;5776;51.814;4.510;2023-05-17T03:34:34;12.47;;;3.67;;
11439;SDS011;5776;51.814;4.510;2023-05-17T03:37:00;12.70;;;3.57;;
11439;SDS011;5776;51.814;4.510;2023-05-17T03:39:26;10.63;;;2.90;;
11439;SDS011;5776;51.814;4.510;2023-05-17T03:41:52;13.90;;;4.33;;
11439;SDS011;5776;51.814;4.510;2023-05-17T03:44:18;12.80;;;3.30;;
11439;SDS011;5776;51.814;4.510;2023-05-17T03:46:43;15.60;;;3.20;;
11439;SDS011;5776;51.814;4.510;2023-05-17T03:49:10;11.60;;;3.27;;
11439;SDS011;5776;51.814;4.510;2023-05-17T03:51:35;9.73;;;3.37;;
11439;SDS011;5776;51.814;4.510;2023-05-17T03:54:02;9.87;;;2.70;;
11439;SDS011;5776;51.814;4.510;2023-05-17T03:56:28;13.10;;;4.37;;
11439;SDS011;5776;51.814;4.510;2023-05-17T03:58:53;9.77;;;3.50;;
11439;SDS011;5776;51.814;4.510;2023-05-17T04:01:19;15.50;;;3.67;;
11439;SDS011;5776;51.814;4.510;2023-05-17T04:03:45;15.13;;;3.90;;
11439;SDS011;5776;51.814;4.510;2023-05-17T04:06:12;12.27;;;3.23;;
11439;SDS011;5776;51.814;4.510;2023-05-17T04:08:39;10.23;;;3.87;;
11439;SDS011;5776;51.814;4.510;2023-05-17T04:11:05;8.07;;;3.00;;
11439;SDS011;5776;51.814;4.510;2023-05-17T04:13:35;14.43;;;3.33;;
11439;SDS011;5776;51.814;4.510;2023-05-17T04:16:02;14.37;;;3.00;;
11439;SDS011;5776;51.814;4.510;2023-05-17T04:18:28;12.70;;;3.40;;
11439;SDS011;5776;51.814;4.510;2023-05-17T04:20:54;15.37;;;3.70;;
11439;SDS011;5776;51.814;4.510;2023-05-17T04:23:20;14.83;;;3.30;;
11439;SDS011;5776;51.814;4.510;2023-05-17T04:25:46;18.43;;;3.50;;
11439;SDS011;5776;51.814;4.510;2023-05-17T04:28:12;13.57;;;3.27;;
11439;SDS011;5776;51.814;4.510;2023-05-17T04:30:45;14.30;;;3.73;;
11439;SDS011;5776;51.814;4.510;2023-05-17T04:33:12;11.23;;;3.17;;
11439;SDS011;5776;51.814;4.510;2023-05-17T04:35:40;11.77;;;3.83;;
11439;SDS011;5776;51.814;4.510;2023-05-17T04:38:06;7.87;;;2.93;;
11439;SDS011;5776;51.814;4.510;2023-05-17T04:40:33;9.80;;;3.57;;
11439;SDS011;5776;51.814;4.510;2023-05-17T04:42:59;14.57;;;3.67;;
11439;SDS011;5776;51.814;4.510;2023-05-17T04:45:25;13.20;;;3.43;;
11439;SDS011;5776;51.814;4.510;2023-05-17T04:47:51;15.33;;;3.60;;
11439;SDS011;5776;51.814;4.510;2023-05-17T04:50:18;9.20;;;3.67;;
11439;SDS011;5776;51.814;4.510;2023-05-17T04:52:45;13.53;;;3.27;;
11439;SDS011;5776;51.814;4.510;2023-05-17T04:55:11;10.50;;;2.90;;
11439;SDS011;5776;51.814;4.510;2023-05-17T04:57:37;17.37;;;3.27;;
11439;SDS011;5776;51.814;4.510;2023-05-17T05:00:03;11.93;;;2.90;;
11439;SDS011;5776;51.814;4.510;2023-05-17T05:02:40;9.57;;;2.80;;
11439;SDS011;5776;51.814;4.510;2023-05-17T05:05:06;11.77;;;3.30;;
11439;SDS011;5776;51.814;4.510;2023-05-17T05:07:34;9.53;;;2.57;;
11439;SDS011;5776;51.814;4.510;2023-05-17T05:10:00;7.87;;;2.80;;
11439;SDS011;5776;51.814;4.510;2023-05-17T05:12:25;9.27;;;2.50;;
11439;SDS011;5776;51.814;4.510;2023-05-17T05:14:51;14.37;;;2.67;;
11439;SDS011;5776;51.814;4.510;2023-05-17T05:17:17;10.90;;;2.23;;
11439;SDS011;5776;51.814;4.510;2023-05-17T05:19:43;18.33;;;2.83;;
11439;SDS011;5776;51.814;4.510;2023-05-17T05:22:10;10.07;;;2.50;;
11439;SDS011;5776;51.814;4.510;2023-05-17T05:24:35;11.23;;;2.57;;
11439;SDS011;5776;51.814;4.510;2023-05-17T05:27:01;8.97;;;2.10;;
11439;SDS011;5776;51.814;4.510;2023-05-17T05:29:28;9.33;;;2.33;;
11439;SDS011;5776;51.814;4.510;2023-05-17T05:31:54;15.90;;;3.17;;
11439;SDS011;5776;51.814;4.510;2023-05-17T05:34:19;12.87;;;2.57;;
11439;SDS011;5776;51.814;4.510;2023-05-17T05:36:45;12.17;;;3.63;;
11439;SDS011;5776;51.814;4.510;2023-05-17T05:39:11;11.17;;;2.17;;
11439;SDS011;5776;51.814;4.510;2023-05-17T05:41:37;13.73;;;2.73;;
11439;SDS011;5776;51.814;4.510;2023-05-17T05:44:03;6.43;;;1.80;;
11439;SDS011;5776;51.814;4.510;2023-05-17T05:46:29;14.17;;;2.33;;
11439;SDS011;5776;51.814;4.510;2023-05-17T05:48:55;16.93;;;2.77;;
11439;SDS011;5776;51.814;4.510;2023-05-17T05:51:21;15.80;;;2.70;;
11439;SDS011;5776;51.814;4.510;2023-05-17T05:53:47;14.13;;;2.20;;
11439;SDS011;5776;51.814;4.510;2023-05-17T05:56:13;8.33;;;2.10;;
11439;SDS011;5776;51.814;4.510;2023-05-17T05:58:39;11.53;;;2.40;;
11439;SDS011;5776;51.814;4.510;2023-05-17T06:01:05;8.33;;;2.50;;
11439;SDS011;5776;51.814;4.510;2023-05-17T06:03:31;9.93;;;1.90;;
11439;SDS011;5776;51.814;4.510;2023-05-17T06:05:57;11.73;;;1.83;;
11439;SDS011;5776;51.814;4.510;2023-05-17T06:08:23;13.73;;;2.80;;
11439;SDS011;5776;51.814;4.510;2023-05-17T06:10:49;11.87;;;2.30;;
11439;SDS011;5776;51.814;4.510;2023-05-17T06:13:15;17.57;;;3.03;;
11439;SDS011;5776;51.814;4.510;2023-05-17T06:15:40;17.60;;;2.90;;
11439;SDS011;5776;51.814;4.510;2023-05-17T06:18:06;12.10;;;2.60;;
11439;SDS011;5776;51.814;4.510;2023-05-17T06:20:32;11.67;;;2.57;;
11439;SDS011;5776;51.814;4.510;2023-05-17T06:22:58;9.87;;;2.53;;
11439;SDS011;5776;51.814;4.510;2023-05-17T06:25:24;12.40;;;2.40;;
11439;SDS011;5776;51.814;4.510;2023-05-17T06:27:50;21.00;;;2.83;;
11439;SDS011;5776;51.814;4.510;2023-05-17T06:30:16;18.07;;;2.17;;
11439;SDS011;5776;51.814;4.510;2023-05-17T06:32:42;11.30;;;2.10;;
11439;SDS011;5776;51.814;4.510;2023-05-17T06:35:08;11.43;;;2.30;;
11439;SDS011;5776;51.814;4.510;2023-05-17T06:37:35;14.93;;;3.00;;
11439;SDS011;5776;51.814;4.510;2023-05-17T06:40:04;17.53;;;2.70;;
11439;SDS011;5776;51.814;4.510;2023-05-17T06:42:32;11.10;;;2.47;;
11439;SDS011;5776;51.814;4.510;2023-05-17T06:44:58;9.70;;;2.40;;
11439;SDS011;5776;51.814;4.510;2023-05-17T06:47:24;10.87;;;1.87;;
11439;SDS011;5776;51.814;4.510;2023-05-17T06:49:50;8.87;;;2.27;;
11439;SDS011;5776;51.814;4.510;2023-05-17T06:52:16;10.30;;;2.47;;
11439;SDS011;5776;51.814;4.510;2023-05-17T06:54:42;10.73;;;1.80;;
11439;SDS011;5776;51.814;4.510;2023-05-17T06:57:08;12.70;;;2.23;;
11439;SDS011;5776;51.814;4.510;2023-05-17T06:59:35;8.73;;;1.90;;
11439;SDS011;5776;51.814;4.510;2023-05-17T07:02:01;8.97;;;2.10;;
11439;SDS011;5776;51.814;4.510;2023-05-17T07:04:27;9.93;;;2.13;;
11439;SDS011;5776;51.814;4.510;2023-05-17T07:06:54;12.37;;;2.00;;
11439;SDS011;5776;51.814;4.510;2023-05-17T07:09:20;13.57;;;3.10;;
11439;SDS011;5776;51.814;4.510;2023-05-17T07:11:46;15.60;;;2.93;;
11439;SDS011;5776;51.814;4.510;2023-05-17T07:14:12;10.33;;;1.77;;
11439;SDS011;5776;51.814;4.510;2023-05-17T07:16:38;11.43;;;2.00;;
11439;SDS011;5776;51.814;4.510;2023-05-17T07:19:04;12.07;;;2.27;;
11439;SDS011;5776;51.814;4.510;2023-05-17T07:21:31;13.97;;;2.17;;
11439;SDS011;5776;51.814;4.510;2023-05-17T07:23:57;16.73;;;2.40;;
11439;SDS011;5776;51.814;4.510;2023-05-17T07:26:23;9.97;;;2.37;;
11439;SDS011;5776;51.814;4.510;2023-05-17T07:28:49;9.77;;;2.00;;
11439;SDS011;5776;51.814;4.510;2023-05-17T07:31:15;14.33;;;2.40;;
11439;SDS011;5776;51.814;4.510;2023-05-17T07:33:42;12.10;;;2.50;;
11439;SDS011;5776;51.814;4.510;2023-05-17T07:36:08;11.97;;;2.57;;
11439;SDS011;5776;51.814;4.510;2023-05-17T07:38:34;15.57;;;2.23;;
11439;SDS011;5776;51.814;4.510;2023-05-17T07:41:01;11.20;;;2.20;;
11439;SDS011;5776;51.814;4.510;2023-05-17T07:43:27;13.47;;;3.00;;
11439;SDS011;5776;51.814;4.510;2023-05-17T07:45:54;9.30;;;2.07;;
11439;SDS011;5776;51.814;4.510;2023-05-17T07:48:19;9.23;;;1.80;;
11439;SDS011;5776;51.814;4.510;2023-05-17T07:50:45;10.90;;;2.30;;
11439;SDS011;5776;51.814;4.510;2023-05-17T07:53:12;14.67;;;1.83;;
11439;SDS011;5776;51.814;4.510;2023-05-17T07:55:38;10.67;;;2.37;;
11439;SDS011;5776;51.814;4.510;2023-05-17T07:58:04;12.93;;;2.10;;
11439;SDS011;5776;51.814;4.510;2023-05-17T08:00:30;14.70;;;2.20;;
11439;SDS011;5776;51.814;4.510;2023-05-17T08:02:56;6.80;;;1.33;;
11439;SDS011;5776;51.814;4.510;2023-05-17T08:05:22;8.60;;;1.80;;
11439;SDS011;5776;51.814;4.510;2023-05-17T08:07:48;17.53;;;2.50;;
11439;SDS011;5776;51.814;4.510;2023-05-17T08:10:13;14.40;;;1.80;;
11439;SDS011;5776;51.814;4.510;2023-05-17T08:12:39;8.50;;;1.83;;
11439;SDS011;5776;51.814;4.510;2023-05-17T08:15:05;11.13;;;2.30;;
11439;SDS011;5776;51.814;4.510;2023-05-17T08:17:32;7.37;;;2.10;;
11439;SDS011;5776;51.814;4.510;2023-05-17T08:19:58;10.00;;;2.07;;
11439;SDS011;5776;51.814;4.510;2023-05-17T08:22:24;11.67;;;2.43;;
11439;SDS011;5776;51.814;4.510;2023-05-17T08:24:50;11.70;;;2.17;;
11439;SDS011;5776;51.814;4.510;2023-05-17T08:27:19;11.17;;;2.53;;
11439;SDS011;5776;51.814;4.510;2023-05-17T08:29:45;6.07;;;1.30;;
11439;SDS011;5776;51.814;4.510;2023-05-17T08:32:11;12.00;;;2.00;;
11439;SDS011;5776;51.814;4.510;2023-05-17T08:34:37;10.00;;;2.20;;
11439;SDS011;5776;51.814;4.510;2023-05-17T08:37:03;14.97;;;2.30;;
11439;SDS011;5776;51.814;4.510;2023-05-17T08:39:29;10.73;;;2.17;;
11439;SDS011;5776;51.814;4.510;2023-05-17T08:41:56;12.23;;;1.97;;
11439;SDS011;5776;51.814;4.510;2023-05-17T08:44:25;9.63;;;1.97;;
11439;SDS011;5776;51.814;4.510;2023-05-17T08:46:53;8.27;;;1.87;;
11439;SDS011;5776;51.814;4.510;2023-05-17T08:49:23;17.00;;;2.50;;
11439;SDS011;5776;51.814;4.510;2023-05-17T08:51:52;12.53;;;1.77;;
11439;SDS011;5776;51.814;4.510;2023-05-17T08:54:19;10.60;;;1.80;;
11439;SDS011;5776;51.814;4.510;2023-05-17T08:56:45;7.47;;;1.50;;
11439;SDS011;5776;51.814;4.510;2023-05-17T08:59:16;7.60;;;1.40;;
11439;SDS011;5776;51.814;4.510;2023-05-17T09:01:46;7.27;;;1.70;;
11439;SDS011;5776;51.814;4.510;2023-05-17T09:04:15;5.63;;;1.40;;
11439;SDS011;5776;51.814;4.510;2023-05-17T09:06:41;6.03;;;1.60;;
11439;SDS011;5776;51.814;4.510;2023-05-17T09:09:08;5.40;;;1.20;;
11439;SDS011;5776;51.814;4.510;2023-05-17T09:11:34;6.80;;;1.07;;
11439;SDS011;5776;51.814;4.510;2023-05-17T09:14:01;8.00;;;1.40;;
11439;SDS011;5776;51.814;4.510;2023-05-17T09:16:33;10.17;;;1.87;;
11439;SDS011;5776;51.814;4.510;2023-05-17T09:19:00;3.43;;;1.30;;
11439;SDS011;5776;51.814;4.510;2023-05-17T09:21:28;8.30;;;1.70;;
11439;SDS011;5776;51.814;4.510;2023-05-17T09:23:58;4.47;;;1.47;;
11439;SDS011;5776;51.814;4.510;2023-05-17T09:26:42;9.27;;;1.50;;
11439;SDS011;5776;51.814;4.510;2023-05-17T09:29:13;6.93;;;1.43;;
11439;SDS011;5776;51.814;4.510;2023-05-17T09:31:41;9.80;;;1.87;;
11439;SDS011;5776;51.814;4.510;2023-05-17T09:34:07;7.50;;;1.90;;
11439;SDS011;5776;51.814;4.510;2023-05-17T09:36:37;8.90;;;1.70;;
11439;SDS011;5776;51.814;4.510;2023-05-17T09:39:08;7.93;;;1.83;;
11439;SDS011;5776;51.814;4.510;2023-05-17T09:41:40;8.83;;;1.30;;
11439;SDS011;5776;51.814;4.510;2023-05-17T09:44:08;9.33;;;1.30;;
11439;SDS011;5776;51.814;4.510;2023-05-17T09:46:36;8.93;;;1.87;;
11439;SDS011;5776;51.814;4.510;2023-05-17T09:49:05;6.23;;;1.60;;
11439;SDS011;5776;51.814;4.510;2023-05-17T09:51:43;9.13;;;2.03;;
11439;SDS011;5776;51.814;4.510;2023-05-17T09:54:10;6.00;;;1.27;;
11439;SDS011;5776;51.814;4.510;2023-05-17T09:56:36;9.13;;;1.57;;
11439;SDS011;5776;51.814;4.510;2023-05-17T09:59:03;8.83;;;1.30;;
11439;SDS011;5776;51.814;4.510;2023-05-17T10:01:34;4.97;;;1.40;;
11439;SDS011;5776;51.814;4.510;2023-05-17T10:04:04;4.33;;;1.00;;
11439;SDS011;5776;51.814;4.510;2023-05-17T10:06:35;6.47;;;1.40;;
11439;SDS011;5776;51.814;4.510;2023-05-17T10:09:05;5.23;;;1.33;;
11439;SDS011;5776;51.814;4.510;2023-05-17T10:11:33;3.70;;;1.13;;
11439;SDS011;5776;51.814;4.510;2023-05-17T10:16:35;7.33;;;1.57;;
11439;SDS011;5776;51.814;4.510;2023-05-17T10:19:02;7.87;;;1.47;;
11439;SDS011;5776;51.814;4.510;2023-05-17T10:21:29;7.17;;;1.27;;
11439;SDS011;5776;51.814;4.510;2023-05-17T10:23:56;6.77;;;1.20;;
11439;SDS011;5776;51.814;4.510;2023-05-17T10:26:24;6.50;;;1.30;;
11439;SDS011;5776;51.814;4.510;2023-05-17T10:28:51;4.83;;;1.03;;
11439;SDS011;5776;51.814;4.510;2023-05-17T10:31:29;8.03;;;1.70;;
11439;SDS011;5776;51.814;4.510;2023-05-17T10:33:58;6.33;;;1.40;;
11439;SDS011;5776;51.814;4.510;2023-05-17T10:36:25;7.67;;;1.57;;
11439;SDS011;5776;51.814;4.510;2023-05-17T10:38:51;8.83;;;1.53;;
11439;SDS011;5776;51.814;4.510;2023-05-17T10:41:21;6.70;;;1.57;;
11439;SDS011;5776;51.814;4.510;2023-05-17T10:43:49;7.77;;;2.27;;
11439;SDS011;5776;51.814;4.510;2023-05-17T10:46:17;11.20;;;1.90;;
11439;SDS011;5776;51.814;4.510;2023-05-17T10:48:51;8.50;;;1.50;;
11439;SDS011;5776;51.814;4.510;2023-05-17T10:51:22;5.20;;;1.50;;
11439;SDS011;5776;51.814;4.510;2023-05-17T10:54:10;5.83;;;1.33;;
11439;SDS011;5776;51.814;4.510;2023-05-17T10:56:42;4.03;;;1.10;;
11439;SDS011;5776;51.814;4.510;2023-05-17T11:02:07;10.10;;;1.93;;
11439;SDS011;5776;51.814;4.510;2023-05-17T11:09:49;9.03;;;1.67;;
11439;SDS011;5776;51.814;4.510;2023-05-17T11:14:58;7.53;;;1.70;;
11439;SDS011;5776;51.814;4.510;2023-05-17T11:17:25;10.73;;;1.57;;
11439;SDS011;5776;51.814;4.510;2023-05-17T11:20:05;3.90;;;1.30;;
11439;SDS011;5776;51.814;4.510;2023-05-17T11:22:38;11.40;;;2.10;;
11439;SDS011;5776;51.814;4.510;2023-05-17T11:25:10;9.20;;;1.50;;
11439;SDS011;5776;51.814;4.510;2023-05-17T11:30:08;7.00;;;1.40;;
11439;SDS011;5776;51.814;4.510;2023-05-17T11:32:45;8.03;;;1.30;;
11439;SDS011;5776;51.814;4.510;2023-05-17T11:35:15;4.80;;;1.33;;
11439;SDS011;5776;51.814;4.510;2023-05-17T11:37:42;3.93;;;1.10;;
11439;SDS011;5776;51.814;4.510;2023-05-17T11:40:09;6.03;;;1.50;;
11439;SDS011;5776;51.814;4.510;2023-05-17T11:42:38;8.33;;;1.33;;
11439;SDS011;5776;51.814;4.510;2023-05-17T11:45:04;7.53;;;1.57;;
11439;SDS011;5776;51.814;4.510;2023-05-17T11:47:31;3.63;;;1.20;;
11439;SDS011;5776;51.814;4.510;2023-05-17T11:50:01;5.03;;;1.77;;
11439;SDS011;5776;51.814;4.510;2023-05-17T11:52:28;5.23;;;1.27;;
11439;SDS011;5776;51.814;4.510;2023-05-17T11:54:58;3.37;;;1.00;;
11439;SDS011;5776;51.814;4.510;2023-05-17T11:57:29;4.23;;;1.17;;
11439;SDS011;5776;51.814;4.510;2023-05-17T11:59:59;4.63;;;1.40;;
11439;SDS011;5776;51.814;4.510;2023-05-17T12:02:30;9.90;;;1.87;;
11439;SDS011;5776;51.814;4.510;2023-05-17T12:04:57;8.00;;;1.30;;
11439;SDS011;5776;51.814;4.510;2023-05-17T12:07:23;9.93;;;1.40;;
11439;SDS011;5776;51.814;4.510;2023-05-17T12:09:50;7.17;;;1.50;;
11439;SDS011;5776;51.814;4.510;2023-05-17T12:12:16;9.37;;;1.10;;
11439;SDS011;5776;51.814;4.510;2023-05-17T12:14:43;5.70;;;1.20;;
11439;SDS011;5776;51.814;4.510;2023-05-17T12:17:10;9.13;;;1.70;;
11439;SDS011;5776;51.814;4.510;2023-05-17T12:19:40;5.60;;;1.73;;
11439;SDS011;5776;51.814;4.510;2023-05-17T12:22:07;8.03;;;1.67;;
11439;SDS011;5776;51.814;4.510;2023-05-17T12:24:40;8.10;;;1.57;;
11439;SDS011;5776;51.814;4.510;2023-05-17T12:27:07;5.67;;;1.73;;
11439;SDS011;5776;51.814;4.510;2023-05-17T12:29:33;8.57;;;1.83;;
11439;SDS011;5776;51.814;4.510;2023-05-17T12:31:59;5.87;;;1.40;;
11439;SDS011;5776;51.814;4.510;2023-05-17T12:34:29;5.40;;;1.37;;
11439;SDS011;5776;51.814;4.510;2023-05-17T12:36:56;3.70;;;1.20;;
11439;SDS011;5776;51.814;4.510;2023-05-17T12:39:22;7.33;;;1.70;;
11439;SDS011;5776;51.814;4.510;2023-05-17T12:41:49;3.30;;;1.20;;
11439;SDS011;5776;51.814;4.510;2023-05-17T12:44:16;10.63;;;1.60;;
11439;SDS011;5776;51.814;4.510;2023-05-17T12:46:44;6.87;;;1.43;;
11439;SDS011;5776;51.814;4.510;2023-05-17T12:49:18;5.70;;;1.57;;
11439;SDS011;5776;51.814;4.510;2023-05-17T12:51:47;6.27;;;1.50;;
11439;SDS011;5776;51.814;4.510;2023-05-17T12:54:24;5.37;;;1.63;;
11439;SDS011;5776;51.814;4.510;2023-05-17T12:56:51;6.37;;;1.50;;
11439;SDS011;5776;51.814;4.510;2023-05-17T12:59:18;8.83;;;1.70;;
11439;SDS011;5776;51.814;4.510;2023-05-17T13:01:50;7.70;;;1.87;;
11439;SDS011;5776;51.814;4.510;2023-05-17T13:04:19;7.20;;;1.40;;
11439;SDS011;5776;51.814;4.510;2023-05-17T13:06:53;6.70;;;1.50;;
11439;SDS011;5776;51.814;4.510;2023-05-17T13:09:21;6.70;;;1.50;;
11439;SDS011;5776;51.814;4.510;2023-05-17T13:11:53;12.10;;;1.70;;
11439;SDS011;5776;51.814;4.510;2023-05-17T13:19:39;6.53;;;1.60;;
11439;SDS011;5776;51.814;4.510;2023-05-17T13:22:06;10.33;;;1.63;;
11439;SDS011;5776;51.814;4.510;2023-05-17T13:24:33;5.87;;;1.43;;
11439;SDS011;5776;51.814;4.510;2023-05-17T13:27:00;3.63;;;1.10;;
11439;SDS011;5776;51.814;4.510;2023-05-17T13:29:27;4.43;;;1.50;;
11439;SDS011;5776;51.814;4.510;2023-05-17T13:31:53;6.50;;;1.57;;
11439;SDS011;5776;51.814;4.510;2023-05-17T13:34:19;8.30;;;1.73;;
11439;SDS011;5776;51.814;4.510;2023-05-17T13:36:48;11.47;;;1.43;;
11439;SDS011;5776;51.814;4.510;2023-05-17T13:39:14;6.33;;;1.40;;
11439;SDS011;5776;51.814;4.510;2023-05-17T13:41:41;9.60;;;1.90;;
11439;SDS011;5776;51.814;4.510;2023-05-17T13:44:07;7.37;;;1.87;;
11439;SDS011;5776;51.814;4.510;2023-05-17T13:46:34;8.80;;;1.60;;
11439;SDS011;5776;51.814;4.510;2023-05-17T13:49:00;7.17;;;1.70;;
11439;SDS011;5776;51.814;4.510;2023-05-17T13:51:32;10.33;;;2.30;;
11439;SDS011;5776;51.814;4.510;2023-05-17T13:53:59;9.87;;;2.03;;
11439;SDS011;5776;51.814;4.510;2023-05-17T13:56:25;8.10;;;1.70;;
11439;SDS011;5776;51.814;4.510;2023-05-17T13:58:51;6.30;;;1.43;;
11439;SDS011;5776;51.814;4.510;2023-05-17T14:01:17;12.83;;;2.23;;
11439;SDS011;5776;51.814;4.510;2023-05-17T14:03:43;9.27;;;1.90;;
11439;SDS011;5776;51.814;4.510;2023-05-17T14:06:10;9.10;;;1.80;;
11439;SDS011;5776;51.814;4.510;2023-05-17T14:08:36;8.10;;;1.60;;
11439;SDS011;5776;51.814;4.510;2023-05-17T14:11:02;15.93;;;2.07;;
11439;SDS011;5776;51.814;4.510;2023-05-17T14:13:28;7.37;;;1.43;;
11439;SDS011;5776;51.814;4.510;2023-05-17T14:15:54;9.13;;;1.90;;
11439;SDS011;5776;51.814;4.510;2023-05-17T14:18:20;7.20;;;1.97;;
11439;SDS011;5776;51.814;4.510;2023-05-17T14:20:46;8.07;;;2.00;;
11439;SDS011;5776;51.814;4.510;2023-05-17T14:23:12;6.47;;;1.67;;
11439;SDS011;5776;51.814;4.510;2023-05-17T14:25:38;10.10;;;1.80;;
11439;SDS011;5776;51.814;4.510;2023-05-17T14:28:04;7.33;;;2.10;;
11439;SDS011;5776;51.814;4.510;2023-05-17T14:30:30;8.33;;;1.80;;
11439;SDS011;5776;51.814;4.510;2023-05-17T14:32:56;10.80;;;2.03;;
11439;SDS011;5776;51.814;4.510;2023-05-17T14:35:22;8.00;;;1.40;;
11439;SDS011;5776;51.814;4.510;2023-05-17T14:37:49;12.30;;;2.27;;
11439;SDS011;5776;51.814;4.510;2023-05-17T14:40:15;5.97;;;1.30;;
11439;SDS011;5776;51.814;4.510;2023-05-17T14:42:41;6.97;;;1.83;;
11439;SDS011;5776;51.814;4.510;2023-05-17T14:45:07;6.73;;;1.60;;
11439;SDS011;5776;51.814;4.510;2023-05-17T14:47:33;14.97;;;2.23;;
11439;SDS011;5776;51.814;4.510;2023-05-17T14:50:00;12.30;;;2.10;;
11439;SDS011;5776;51.814;4.510;2023-05-17T14:52:25;10.17;;;1.60;;
11439;SDS011;5776;51.814;4.510;2023-05-17T14:54:51;6.80;;;1.53;;
11439;SDS011;5776;51.814;4.510;2023-05-17T14:57:17;6.87;;;1.93;;
11439;SDS011;5776;51.814;4.510;2023-05-17T14:59:45;11.37;;;1.90;;
11439;SDS011;5776;51.814;4.510;2023-05-17T15:02:12;11.30;;;1.73;;
11439;SDS011;5776;51.814;4.510;2023-05-17T15:04:38;6.33;;;1.77;;
11439;SDS011;5776;51.814;4.510;2023-05-17T15:07:04;11.93;;;2.00;;
11439;SDS011;5776;51.814;4.510;2023-05-17T15:09:30;8.70;;;2.00;;
11439;SDS011;5776;51.814;4.510;2023-05-17T15:11:56;8.97;;;2.00;;
11439;SDS011;5776;51.814;4.510;2023-05-17T15:14:22;7.63;;;1.47;;
11439;SDS011;5776;51.814;4.510;2023-05-17T15:16:49;7.47;;;1.70;;
11439;SDS011;5776;51.814;4.510;2023-05-17T15:19:16;7.50;;;1.80;;
11439;SDS011;5776;51.814;4.510;2023-05-17T15:21:43;8.23;;;1.53;;
11439;SDS011;5776;51.814;4.510;2023-05-17T15:24:10;10.10;;;1.63;;
11439;SDS011;5776;51.814;4.510;2023-05-17T15:26:36;4.80;;;1.07;;